Time;durP1;ratioP1;P1;durP2;ratioP2;P2;SDS_P1;SDS_P2;PMS_P1;PMS_P2;Temp;Humidity;BMP_temperature;BMP_pressure;BME280_temperature;BME280_humidity;BME280_pressure;Samples;Min_cycle;Max_cycle;Signal;HPM_P1;HPM_P2
2022/07/31 00:00:14;;;;;;;16.35;10.02;;;;;;;18.80;78.00;101662.63;5071245;28;20079;-66
2022/07/31 00:02:39;;;;;;;15.23;10.82;;;;;;;18.80;77.78;101658.06;5071275;28;20139;-66
2022/07/31 00:05:05;;;;;;;16.67;10.43;;;;;;;18.74;79.57;101653.56;5071201;28;20511;-66
2022/07/31 00:07:30;;;;;;;16.17;10.05;;;;;;;18.70;80.39;101643.44;5071190;28;20032;-67
2022/07/31 00:09:56;;;;;;;16.52;11.18;;;;;;;18.65;81.40;101646.81;5071138;28;20105;-67
2022/07/31 00:12:21;;;;;;;15.00;10.45;;;;;;;18.65;81.96;101646.00;5070929;28;20028;-66
2022/07/31 00:14:47;;;;;;;17.05;11.68;;;;;;;18.56;81.40;101643.63;5069831;28;20043;-66
2022/07/31 00:17:13;;;;;;;15.68;11.05;;;;;;;18.54;81.67;101644.91;5070509;28;20032;-66
2022/07/31 00:19:38;;;;;;;16.42;10.73;;;;;;;18.49;82.34;101639.38;5070859;28;20036;-67
2022/07/31 00:22:04;;;;;;;16.77;11.57;;;;;;;18.44;82.12;101642.75;5070808;28;20033;-67
2022/07/31 00:24:29;;;;;;;15.05;10.10;;;;;;;18.45;82.63;101630.09;5070920;28;20476;-67
2022/07/31 00:26:55;;;;;;;16.05;10.73;;;;;;;18.49;82.80;101639.38;5070637;28;20051;-67
2022/07/31 00:29:20;;;;;;;15.57;9.98;;;;;;;18.47;83.36;101633.38;5070549;28;20113;-67
2022/07/31 00:31:46;;;;;;;14.63;10.63;;;;;;;18.42;85.38;101628.69;5070579;28;20074;-67
2022/07/31 00:34:11;;;;;;;17.63;11.05;;;;;;;18.40;83.26;101620.78;5069721;28;20633;-67
2022/07/31 00:36:36;;;;;;;17.10;11.68;;;;;;;18.38;84.77;101617.50;5070604;28;20502;-67
2022/07/31 00:39:02;;;;;;;14.05;9.55;;;;;;;18.33;84.05;101608.44;5070518;28;20032;-67
2022/07/31 00:41:42;;;;;;;14.90;10.52;;;;;;;18.37;83.52;101615.03;5070336;28;20383;-67
2022/07/31 00:44:11;;;;;;;19.05;10.88;;;;;;;18.39;83.27;101618.31;5069992;28;20051;-67
2022/07/31 00:46:36;;;;;;;15.00;10.63;;;;;;;18.41;84.05;101616.22;5070451;28;20028;-67
2022/07/31 00:49:02;;;;;;;18.15;10.38;;;;;;;18.42;84.52;101623.28;5070382;28;20113;-67
2022/07/31 00:51:28;;;;;;;14.70;10.40;;;;;;;18.40;85.13;101623.50;5070191;28;20032;-67
2022/07/31 00:53:53;;;;;;;17.95;11.75;;;;;;;18.40;85.12;101623.50;5070177;28;20040;-67
2022/07/31 00:56:19;;;;;;;15.45;12.18;;;;;;;18.41;85.71;101624.31;5068866;28;20028;-67
2022/07/31 00:58:45;;;;;;;16.33;11.10;;;;;;;18.38;86.14;101622.06;5069828;28;20403;-67
2022/07/31 01:01:10;;;;;;;17.67;11.43;;;;;;;18.29;85.65;101618.06;5069879;28;20032;-67
2022/07/31 01:03:35;;;;;;;16.55;11.07;;;;;;;18.29;85.49;101618.06;5070083;28;20032;-67
2022/07/31 01:06:02;;;;;;;19.67;12.85;;;;;;;18.26;86.17;101613.09;5069986;28;20082;-67
2022/07/31 01:08:27;;;;;;;17.67;11.77;;;;;;;18.26;86.26;101605.00;5069815;28;20031;-67
2022/07/31 01:10:58;;;;;;;16.38;11.23;;;;;;;18.23;86.21;101600.88;5069729;28;20036;-67
2022/07/31 01:13:49;;;;;;;15.13;10.68;;;;;;;18.27;85.92;101604.78;5069746;28;20044;-67
2022/07/31 01:16:17;;;;;;;18.13;11.10;;;;;;;18.22;85.33;101590.31;5069491;28;20052;-67
2022/07/31 01:18:43;;;;;;;17.98;12.10;;;;;;;18.21;85.82;101597.59;5069860;28;20410;-67
2022/07/31 01:21:15;;;;;;;18.20;10.80;;;;;;;18.25;85.84;101597.97;5069659;28;20111;-67
2022/07/31 01:24:31;;;;;;;14.15;10.15;;;;;;;18.28;84.28;101606.41;5069744;28;20120;-67
2022/07/31 01:27:02;;;;;;;15.45;10.52;;;;;;;18.30;83.84;101598.91;5035566;28;20056;-67
2022/07/31 01:29:34;;;;;;;17.00;12.10;;;;;;;18.35;83.63;101603.63;5069494;28;20060;-67
2022/07/31 01:32:02;;;;;;;16.23;11.15;;;;;;;18.39;82.74;101607.50;5069453;28;20065;-67
2022/07/31 01:34:34;;;;;;;19.05;10.60;;;;;;;18.42;82.42;101608.91;5069137;28;20105;-67
2022/07/31 01:37:12;;;;;;;15.90;10.18;;;;;;;18.43;82.08;101602.50;5069675;28;20032;-67
2022/07/31 01:39:43;;;;;;;17.38;10.77;;;;;;;18.41;81.70;101594.59;5069396;28;20648;-67
2022/07/31 01:42:12;;;;;;;16.33;12.03;;;;;;;18.42;81.60;101598.13;5069143;28;20033;-67
2022/07/31 01:44:43;;;;;;;16.95;11.60;;;;;;;18.40;81.45;101599.19;5067838;28;20105;-67
2022/07/31 01:47:12;;;;;;;17.83;12.00;;;;;;;18.41;81.56;101597.31;5068870;28;20090;-67
2022/07/31 01:49:40;;;;;;;17.65;11.40;;;;;;;18.37;81.67;101591.56;5069189;28;20032;-67
2022/07/31 01:52:07;;;;;;;17.85;12.82;;;;;;;18.30;81.79;101582.72;5069064;28;20040;-67
2022/07/31 01:54:34;;;;;;;22.40;13.13;;;;;;;18.28;81.86;101592.09;5069474;28;20077;-67
2022/07/31 01:57:03;;;;;;;16.30;11.77;;;;;;;18.27;81.60;101593.16;5069260;28;20399;-67
2022/07/31 01:59:29;;;;;;;17.08;11.68;;;;;;;18.27;81.32;101593.97;5068994;28;20518;-67
2022/07/31 02:01:56;;;;;;;18.73;13.18;;;;;;;18.23;81.17;101587.38;5069199;28;20485;-67
2022/07/31 02:04:22;;;;;;;17.30;11.50;;;;;;;18.26;80.62;101597.75;5068698;28;20032;-67
2022/07/31 02:06:49;;;;;;;24.63;13.82;;;;;;;18.25;80.29;101601.47;5067161;28;20067;-65
2022/07/31 02:09:18;;;;;;;18.67;12.98;;;;;;;18.24;80.56;101604.44;5069249;28;20032;-65
2022/07/31 02:11:44;;;;;;;17.40;12.43;;;;;;;18.22;80.14;101607.34;5069069;28;20032;-65
2022/07/31 02:14:10;;;;;;;18.55;11.30;;;;;;;18.21;79.98;101605.72;5069416;28;20574;-65
2022/07/31 02:16:37;;;;;;;17.65;11.23;;;;;;;18.19;80.14;101599.72;5069031;28;20068;-65
2022/07/31 02:19:04;;;;;;;17.15;10.52;;;;;;;18.17;80.33;101605.31;5068951;28;20025;-65
2022/07/31 02:21:29;;;;;;;14.93;10.80;;;;;;;18.15;80.49;101596.63;5068657;28;20032;-65
2022/07/31 02:23:56;;;;;;;16.60;10.75;;;;;;;18.13;80.51;101592.50;5069128;28;20039;-65
2022/07/31 02:26:23;;;;;;;16.27;10.80;;;;;;;18.13;80.22;101596.06;5069011;28;20029;-65
2022/07/31 02:28:50;;;;;;;17.45;11.27;;;;;;;18.10;80.24;101583.00;5068960;28;20103;-65
2022/07/31 02:31:16;;;;;;;16.08;10.68;;;;;;;18.13;80.56;101587.09;5068886;28;20036;-65
2022/07/31 02:33:44;;;;;;;16.70;11.25;;;;;;;18.13;80.71;101598.75;5068962;28;20071;-65
2022/07/31 02:36:12;;;;;;;16.60;10.95;;;;;;;18.13;80.46;101590.66;5068954;28;20047;-65
2022/07/31 02:38:39;;;;;;;14.57;10.77;;;;;;;18.14;80.10;101596.88;5068933;28;20464;-65
2022/07/31 02:41:06;;;;;;;17.70;10.93;;;;;;;18.13;79.77;101592.50;5068885;28;20108;-65
2022/07/31 02:43:33;;;;;;;16.50;11.43;;;;;;;18.11;79.87;101598.16;5068763;28;20101;-65
2022/07/31 02:45:59;;;;;;;13.60;9.55;;;;;;;18.12;79.14;101599.78;5068220;28;20035;-65
2022/07/31 02:48:25;;;;;;;17.30;9.88;;;;;;;18.12;78.42;101601.66;5068264;28;20032;-65
2022/07/31 02:50:51;;;;;;;15.73;10.00;;;;;;;18.06;78.87;101598.00;5068565;28;20078;-65
2022/07/31 02:53:17;;;;;;;16.45;10.35;;;;;;;18.09;78.49;101599.44;5068590;28;20364;-65
2022/07/31 02:55:44;;;;;;;15.80;10.05;;;;;;;18.07;77.78;101604.22;5068908;28;20033;-65
2022/07/31 02:58:10;;;;;;;17.42;10.25;;;;;;;18.06;77.64;101595.31;5072322;28;20032;-67
2022/07/31 03:00:35;;;;;;;15.68;9.10;;;;;;;18.02;77.84;101585.19;5072442;28;20388;-65
2022/07/31 03:03:00;;;;;;;13.38;9.38;;;;;;;18.04;77.80;101588.47;5072373;28;20051;-65
2022/07/31 03:05:26;;;;;;;13.60;8.40;;;;;;;18.02;77.95;101586.00;5072253;28;20383;-65
2022/07/31 03:07:51;;;;;;;13.60;8.77;;;;;;;18.01;77.76;101584.38;5071584;28;20456;-65
2022/07/31 03:10:18;;;;;;;12.98;8.43;;;;;;;17.99;77.72;101577.53;5071254;28;20037;-65
2022/07/31 03:12:47;;;;;;;16.10;8.73;;;;;;;17.99;78.00;101585.66;5071262;28;20146;-65
2022/07/31 03:15:15;;;;;;;17.17;10.30;;;;;;;17.96;77.53;101584.22;5071995;28;20056;-65
2022/07/31 03:17:43;;;;;;;17.15;9.35;;;;;;;17.94;77.42;101573.66;5071796;28;20086;-65
2022/07/31 03:20:09;;;;;;;16.83;9.40;;;;;;;17.92;77.91;101570.38;5072016;28;20059;-65
2022/07/31 03:22:35;;;;;;;11.98;8.82;;;;;;;17.94;77.97;101575.53;5071995;28;20039;-66
2022/07/31 03:25:02;;;;;;;14.13;8.32;;;;;;;17.93;78.10;101565.78;5071558;28;20036;-65
2022/07/31 03:27:28;;;;;;;13.57;8.70;;;;;;;17.94;78.41;101564.72;5071793;28;20028;-65
2022/07/31 03:29:53;;;;;;;15.25;9.82;;;;;;;17.91;79.35;101559.78;5071807;28;20072;-65
2022/07/31 03:32:19;;;;;;;15.77;9.00;;;;;;;17.83;79.23;101557.41;5070411;28;20070;-71
2022/07/31 03:34:45;;;;;;;14.70;9.68;;;;;;;17.84;79.47;101568.00;5071745;28;20056;-70
2022/07/31 03:37:10;;;;;;;12.63;9.18;;;;;;;17.82;78.93;101570.09;5071357;28;20113;-71
2022/07/31 03:39:36;;;;;;;16.17;9.50;;;;;;;17.80;78.94;101565.97;5071670;28;20032;-70
2022/07/31 03:42:02;;;;;;;15.18;9.95;;;;;;;17.81;79.19;101573.81;5071675;28;20025;-70
2022/07/31 03:44:31;;;;;;;15.30;9.80;;;;;;;17.79;79.97;101570.56;5071550;28;20029;-70
2022/07/31 03:46:57;;;;;;;17.60;10.15;;;;;;;17.80;80.19;101574.06;5071558;28;20044;-71
2022/07/31 03:49:23;;;;;;;17.90;10.85;;;;;;;17.80;80.67;101568.66;5069556;28;20154;-70
2022/07/31 03:51:48;;;;;;;18.80;11.30;;;;;;;17.80;80.60;101576.75;5071207;28;20119;-70
2022/07/31 03:54:14;;;;;;;20.08;12.32;;;;;;;17.79;80.55;101575.94;5071574;28;20099;-71
2022/07/31 03:56:43;;;;;;;15.73;11.95;;;;;;;17.76;80.50;101565.53;5071388;28;20032;-71
2022/07/31 03:59:09;;;;;;;27.67;13.98;;;;;;;17.75;80.44;101563.91;5071266;28;20025;-70
2022/07/31 04:01:35;;;;;;;16.40;11.63;;;;;;;17.72;80.78;101567.06;5071296;28;20035;-70
2022/07/31 04:04:00;;;;;;;16.15;10.52;;;;;;;17.70;81.29;101566.47;5071210;28;20047;-70
2022/07/31 04:06:25;;;;;;;18.42;11.10;;;;;;;17.66;81.38;101570.69;5071215;28;20044;-71
2022/07/31 04:08:51;;;;;;;20.08;11.77;;;;;;;17.62;81.67;101578.38;5070254;28;20024;-71
2022/07/31 04:11:16;;;;;;;25.80;12.57;;;;;;;17.60;82.14;101577.78;5070958;28;20024;-70
2022/07/31 04:13:42;;;;;;;18.25;11.52;;;;;;;17.58;82.24;101577.22;5071043;28;20043;-71
2022/07/31 04:16:07;;;;;;;17.77;12.27;;;;;;;17.54;82.45;101570.59;5070871;28;20440;-71
2022/07/31 04:18:33;;;;;;;18.75;13.13;;;;;;;17.57;82.60;101585.50;5070998;28;20040;-71
2022/07/31 04:20:58;;;;;;;21.92;12.40;;;;;;;17.59;82.76;101584.25;5070825;28;20064;-70
2022/07/31 04:23:24;;;;;;;18.77;12.30;;;;;;;17.53;82.97;101571.66;5071029;28;20028;-70
2022/07/31 04:25:49;;;;;;;26.70;12.10;;;;;;;17.63;82.81;101587.28;5070981;28;20395;-71
2022/07/31 04:28:15;;;;;;;19.77;11.80;;;;;;;17.61;82.63;101579.44;5070749;28;20102;-71
2022/07/31 04:30:40;;;;;;;20.70;13.07;;;;;;;17.63;82.76;101574.66;5068867;28;20492;-71
2022/07/31 04:33:05;;;;;;;19.27;12.32;;;;;;;17.65;82.83;101580.63;5070515;28;20459;-71
2022/07/31 04:35:31;;;;;;;20.45;11.18;;;;;;;17.66;83.03;101594.97;5070679;28;20395;-70
2022/07/31 04:37:56;;;;;;;20.38;11.32;;;;;;;17.66;82.81;101587.69;5069962;28;20508;-71
2022/07/31 04:40:21;;;;;;;22.33;12.18;;;;;;;17.67;82.89;101583.94;5070200;28;20067;-71
2022/07/31 04:42:47;;;;;;;19.75;12.32;;;;;;;17.63;82.81;101574.66;5070367;28;20090;-70
2022/07/31 04:45:12;;;;;;;16.52;11.13;;;;;;;17.67;82.96;101592.03;5070518;28;20119;-70
2022/07/31 04:47:37;;;;;;;18.70;11.90;;;;;;;17.66;83.23;101592.25;5070418;28;20618;-71
2022/07/31 04:50:03;;;;;;;15.65;10.10;;;;;;;17.66;83.08;101592.25;5070332;28;20067;-71
2022/07/31 04:52:29;;;;;;;21.48;10.85;;;;;;;17.67;82.92;101583.94;5069391;28;20507;-70
2022/07/31 04:54:54;;;;;;;17.65;11.73;;;;;;;17.67;82.91;101573.13;5070124;28;20044;-70
2022/07/31 04:57:19;;;;;;;18.00;11.85;;;;;;;17.70;83.39;101583.47;5070331;28;20101;-70
2022/07/31 04:59:45;;;;;;;17.65;11.95;;;;;;;17.71;82.83;101582.44;5069690;28;20030;-69
2022/07/31 05:02:10;;;;;;;17.15;10.70;;;;;;;17.71;83.16;101582.44;5070059;28;20035;-69
2022/07/31 05:04:35;;;;;;;20.75;11.88;;;;;;;17.77;82.89;101583.41;5070049;28;20035;-69
2022/07/31 05:07:01;;;;;;;18.20;11.55;;;;;;;17.78;82.79;101576.94;5070092;28;20051;-69
2022/07/31 05:09:32;;;;;;;18.40;11.55;;;;;;;17.83;82.84;101579.00;5069939;28;20028;-69
2022/07/31 05:11:57;;;;;;;16.63;10.57;;;;;;;17.83;82.74;101570.91;5069863;28;20024;-70
2022/07/31 05:14:23;;;;;;;17.50;10.23;;;;;;;17.83;82.88;101569.03;5069915;28;20638;-69
2022/07/31 05:16:48;;;;;;;18.63;11.80;;;;;;;17.85;83.22;101583.13;5069975;28;20802;-70
2022/07/31 05:19:14;;;;;;;17.30;9.57;;;;;;;17.79;83.64;101566.97;5069373;28;20135;-69
2022/07/31 05:21:39;;;;;;;17.35;10.80;;;;;;;17.80;84.18;101572.19;5069841;28;20032;-69
2022/07/31 05:24:05;;;;;;;17.85;10.70;;;;;;;17.79;84.40;101585.84;5069757;28;20544;-69
2022/07/31 05:26:30;;;;;;;15.05;9.27;;;;;;;17.76;84.81;101568.25;5069328;28;20482;-69
2022/07/31 05:28:57;;;;;;;14.82;9.15;;;;;;;17.75;85.46;101572.00;5068174;28;20068;-69
2022/07/31 05:31:22;;;;;;;14.85;8.73;;;;;;;17.80;86.73;101571.38;5069542;28;20032;-70
2022/07/31 05:33:49;;;;;;;13.65;8.60;;;;;;;17.79;85.92;101559.75;5069697;28;20437;-69
2022/07/31 05:36:16;;;;;;;13.75;8.38;;;;;;;17.78;86.39;101552.66;5069574;28;20456;-69
2022/07/31 05:38:41;;;;;;;16.02;8.13;;;;;;;17.80;86.90;101555.19;5069257;28;20025;-70
2022/07/31 05:41:07;;;;;;;13.57;8.30;;;;;;;17.82;87.26;101553.91;5069622;28;20939;-70
2022/07/31 05:43:33;;;;;;;13.98;8.43;;;;;;;17.84;87.90;101545.56;5069435;28;20039;-70
2022/07/31 05:45:58;;;;;;;13.55;7.47;;;;;;;17.88;87.49;101549.47;5069504;28;20020;-70
2022/07/31 05:48:23;;;;;;;12.48;7.03;;;;;;;17.89;87.82;101549.25;5069284;28;20032;-70
2022/07/31 05:50:50;;;;;;;12.65;7.47;;;;;;;17.92;87.81;101561.44;5069430;28;20119;-70
2022/07/31 05:53:16;;;;;;;11.20;6.57;;;;;;;17.95;88.19;101564.50;5069257;28;20032;-70
2022/07/31 05:55:43;;;;;;;15.13;7.47;;;;;;;17.96;88.13;101568.03;5068806;28;20038;-70
2022/07/31 05:58:09;;;;;;;12.38;7.00;;;;;;;17.99;88.32;101561.34;5069322;28;20032;-70
2022/07/31 06:00:35;;;;;;;12.02;6.25;;;;;;;18.00;88.06;101560.28;5069296;28;20028;-70
2022/07/31 06:03:01;;;;;;;13.57;6.97;;;;;;;18.02;88.21;101560.88;5069235;28;20032;-71
2022/07/31 06:05:28;;;;;;;12.27;6.00;;;;;;;18.05;88.33;101563.13;5069310;28;20468;-70
2022/07/31 06:07:53;;;;;;;10.77;5.78;;;;;;;18.01;88.01;101553.84;5068955;28;20077;-70
2022/07/31 06:10:19;;;;;;;13.20;6.68;;;;;;;18.07;88.18;101566.44;5068807;28;20095;-70
2022/07/31 06:12:44;;;;;;;10.70;5.85;;;;;;;18.08;88.65;101563.50;5069046;28;20047;-70
2022/07/31 06:15:10;;;;;;;10.15;5.82;;;;;;;18.07;88.66;101567.25;5069139;28;20440;-70
2022/07/31 06:17:39;;;;;;;10.00;5.78;;;;;;;18.10;88.23;101571.38;5069042;28;20039;-70
2022/07/31 06:20:05;;;;;;;9.95;5.90;;;;;;;18.10;88.76;101572.22;5069022;28;20040;-70
2022/07/31 06:22:30;;;;;;;9.75;6.07;;;;;;;18.11;88.69;101565.75;5069024;28;20036;-70
2022/07/31 06:24:56;;;;;;;11.15;5.63;;;;;;;18.16;88.71;101570.47;5069084;28;20063;-70
2022/07/31 06:27:21;;;;;;;11.02;5.30;;;;;;;18.15;88.47;101568.81;5069142;28;20376;-74
2022/07/31 06:29:47;;;;;;;9.43;5.63;;;;;;;18.20;88.59;101568.13;5069014;28;20056;-70
2022/07/31 06:32:13;;;;;;;9.05;5.45;;;;;;;18.20;88.61;101563.53;5071452;28;20032;-70
2022/07/31 06:34:39;;;;;;;10.77;5.82;;;;;;;18.26;88.34;101559.09;5072886;28;20248;-69
2022/07/31 06:37:05;;;;;;;12.45;6.18;;;;;;;18.33;88.75;101571.44;5072399;28;20033;-69
2022/07/31 06:39:30;;;;;;;11.13;5.95;;;;;;;18.36;88.97;101554.78;5072543;28;20377;-69
2022/07/31 06:41:56;;;;;;;8.88;5.70;;;;;;;18.45;88.22;101565.28;5072853;28;20037;-69
2022/07/31 06:44:21;;;;;;;9.73;5.32;;;;;;;18.51;87.68;101561.63;5071353;28;20033;-69
2022/07/31 06:46:48;;;;;;;11.02;5.20;;;;;;;18.59;88.42;101564.81;5072611;28;20111;-69
2022/07/31 06:49:14;;;;;;;11.77;5.18;;;;;;;18.65;87.87;101563.03;5072665;28;20193;-69
2022/07/31 06:51:40;;;;;;;9.43;5.28;;;;;;;18.71;87.72;101554.03;5072434;28;20033;-69
2022/07/31 06:54:08;;;;;;;9.05;5.78;;;;;;;18.74;86.88;101550.03;5072640;28;20181;-69
2022/07/31 06:56:34;;;;;;;7.47;4.65;;;;;;;18.73;86.91;101548.38;5071856;28;20121;-69
2022/07/31 06:59:00;;;;;;;11.57;5.53;;;;;;;18.78;87.25;101559.34;5070863;28;20403;-70
2022/07/31 07:01:26;;;;;;;9.82;4.68;;;;;;;18.79;87.25;101556.41;5072344;28;20024;-72
2022/07/31 07:03:52;;;;;;;12.52;5.82;;;;;;;18.82;87.96;101565.94;5072438;28;20471;-72
2022/07/31 07:06:18;;;;;;;10.63;5.50;;;;;;;18.81;87.10;101562.41;5072239;28;20113;-73
2022/07/31 07:08:43;;;;;;;14.27;5.50;;;;;;;18.83;86.99;101554.06;5072191;28;20033;-72
2022/07/31 07:11:09;;;;;;;9.50;5.38;;;;;;;18.88;87.74;101561.47;5071715;28;20173;-73
2022/07/31 07:13:34;;;;;;;12.50;6.18;;;;;;;18.95;87.51;101560.28;5071432;28;20426;-73
2022/07/31 07:15:59;;;;;;;11.02;5.82;;;;;;;18.99;86.71;101561.47;5071954;28;20052;-67
2022/07/31 07:18:25;;;;;;;12.38;7.10;;;;;;;19.03;87.04;101557.22;5072074;28;20082;-67
2022/07/31 07:20:51;;;;;;;13.07;6.22;;;;;;;19.05;87.09;101554.31;5072177;28;20028;-67
2022/07/31 07:23:17;;;;;;;14.63;6.60;;;;;;;19.11;86.39;101555.25;5071969;28;20024;-67
2022/07/31 07:25:43;;;;;;;14.13;6.88;;;;;;;19.14;86.21;101550.16;5072045;28;20484;-67
2022/07/31 07:28:09;;;;;;;12.32;5.97;;;;;;;19.20;86.53;101554.66;5072085;28;20042;-67
2022/07/31 07:30:35;;;;;;;14.70;7.50;;;;;;;19.27;86.76;101549.91;5071562;28;20071;-67
2022/07/31 07:33:00;;;;;;;11.68;6.78;;;;;;;19.36;86.88;101546.84;5071867;28;20488;-68
2022/07/31 07:35:27;;;;;;;18.25;6.68;;;;;;;19.45;85.28;101548.13;5071778;28;20103;-68
2022/07/31 07:37:53;;;;;;;15.43;6.78;;;;;;;19.57;85.82;101553.50;5071524;28;20060;-68
2022/07/31 07:40:19;;;;;;;13.73;6.38;;;;;;;19.67;85.40;101534.78;5071488;28;20071;-68
2022/07/31 07:42:45;;;;;;;13.38;7.55;;;;;;;19.78;85.12;101550.19;5070068;28;20055;-68
2022/07/31 07:45:11;;;;;;;13.05;7.30;;;;;;;19.86;84.31;101551.69;5070751;28;20117;-68
2022/07/31 07:47:38;;;;;;;13.73;6.90;;;;;;;19.91;83.68;101549.91;5065804;28;20112;-68
2022/07/31 07:50:04;;;;;;;12.32;6.97;;;;;;;19.97;84.95;101545.41;5067624;28;20040;-69
2022/07/31 07:52:30;;;;;;;14.15;6.95;;;;;;;20.07;84.27;101544.78;5067205;28;20117;-68
2022/07/31 07:54:55;;;;;;;13.98;7.35;;;;;;;20.16;83.93;101537.06;5065809;28;20070;-69
2022/07/31 07:57:21;;;;;;;15.20;7.45;;;;;;;20.20;82.55;101538.22;5068362;28;20512;-69
2022/07/31 07:59:47;;;;;;;15.55;7.03;;;;;;;20.21;82.66;101537.16;5069570;28;20036;-69
2022/07/31 08:02:13;;;;;;;17.20;7.57;;;;;;;20.31;83.44;101537.34;5071278;28;20036;-69
2022/07/31 08:04:38;;;;;;;16.60;7.05;;;;;;;20.39;81.69;101539.66;5071272;28;20031;-68
2022/07/31 08:07:04;;;;;;;15.15;8.73;;;;;;;20.43;82.47;101540.78;5071274;28;20123;-69
2022/07/31 08:09:30;;;;;;;13.18;6.80;;;;;;;20.49;82.42;101544.41;5071186;28;20123;-69
2022/07/31 08:11:56;;;;;;;15.75;7.75;;;;;;;20.47;81.50;101528.38;5071072;28;20050;-69
2022/07/31 08:14:21;;;;;;;15.52;8.45;;;;;;;20.49;83.02;101537.09;5071015;28;20029;-69
2022/07/31 08:16:47;;;;;;;14.00;7.43;;;;;;;20.49;82.69;101528.16;5071075;28;20107;-68
2022/07/31 08:19:12;;;;;;;17.02;7.18;;;;;;;20.48;82.57;101532.72;5069097;28;20388;-68
2022/07/31 08:21:38;;;;;;;13.85;7.45;;;;;;;20.49;82.01;101522.75;5070481;28;20111;-68
2022/07/31 08:24:04;;;;;;;16.85;8.50;;;;;;;20.57;81.48;101520.47;5069573;28;20661;-68
2022/07/31 08:27:22;;;;;;;13.70;7.90;;;;;;;20.77;80.59;101517.22;5070958;28;20558;-68
2022/07/31 08:29:14;;;;;;;15.20;7.85;;;;;;;21.29;80.39;101523.38;5070387;28;20055;-68
2022/07/31 08:31:40;;;;;;;11.80;7.63;;;;;;;21.73;77.81;101529.63;5070585;28;20032;-68
2022/07/31 08:34:06;;;;;;;16.60;6.97;;;;;;;21.71;76.86;101512.75;5070624;28;20029;-68
2022/07/31 08:36:31;;;;;;;12.13;6.53;;;;;;;21.58;77.69;101526.72;5070569;28;20503;-68
2022/07/31 08:38:57;;;;;;;12.18;6.28;;;;;;;21.41;78.01;101529.53;5070603;28;20028;-69
2022/07/31 08:41:23;;;;;;;14.50;7.80;;;;;;;21.30;78.64;101533.97;5070372;28;20039;-69
2022/07/31 08:43:48;;;;;;;12.52;7.40;;;;;;;21.30;78.47;101525.00;5070243;28;20376;-69
2022/07/31 08:46:14;;;;;;;12.13;7.07;;;;;;;21.33;78.42;101527.22;5070503;28;20130;-74
2022/07/31 08:48:40;;;;;;;11.43;7.05;;;;;;;21.40;77.86;101527.88;5069143;28;20024;-74
2022/07/31 08:51:09;;;;;;;11.57;6.60;;;;;;;21.41;77.30;101532.25;5070222;28;20035;-73
2022/07/31 08:53:35;;;;;;;13.93;7.38;;;;;;;21.33;78.79;101525.31;5070101;28;20032;-74
2022/07/31 08:56:02;;;;;;;13.70;7.05;;;;;;;21.23;79.73;101528.72;5070156;28;20028;-73
2022/07/31 08:58:28;;;;;;;17.33;6.60;;;;;;;21.12;78.94;101528.84;5069974;28;20395;-72
2022/07/31 09:00:54;;;;;;;13.75;7.28;;;;;;;21.04;79.25;101529.25;5069633;28;20032;-72
2022/07/31 09:03:19;;;;;;;9.02;5.78;;;;;;;20.99;80.08;101536.28;5070091;28;20115;-72
2022/07/31 09:05:45;;;;;;;11.20;6.78;;;;;;;20.96;80.36;101528.63;5068652;28;20040;-73
2022/07/31 09:08:10;;;;;;;14.70;8.18;;;;;;;20.97;79.98;101532.16;5069922;28;20028;-72
2022/07/31 09:10:36;;;;;;;12.30;6.45;;;;;;;20.94;80.18;101535.38;5069867;28;20055;-72
2022/07/31 09:13:15;;;;;;;13.60;6.60;;;;;;;20.90;80.11;101531.50;5068621;28;20093;-72
2022/07/31 09:15:41;;;;;;;14.77;6.93;;;;;;;20.78;80.70;101526.19;5069892;28;20040;-72
2022/07/31 09:18:16;;;;;;;14.18;6.80;;;;;;;20.81;81.49;101539.25;5069818;28;20059;-72
2022/07/31 09:20:55;;;;;;;13.35;7.55;;;;;;;20.82;81.43;101526.50;5069778;28;20108;-75
2022/07/31 09:23:21;;;;;;;10.85;6.88;;;;;;;20.83;80.78;101518.16;5069784;28;20016;-74
2022/07/31 09:26:03;;;;;;;11.52;6.38;;;;;;;20.93;80.64;101526.44;5069402;28;21061;-72
2022/07/31 09:28:47;;;;;;;11.30;6.90;;;;;;;20.98;81.23;101526.47;5069560;28;20025;-73
2022/07/31 09:31:13;;;;;;;12.93;7.45;;;;;;;21.04;80.39;101516.53;5069360;28;20064;-72
2022/07/31 09:33:44;;;;;;;12.75;7.68;;;;;;;21.16;82.59;101524.56;5069574;28;20084;-71
2022/07/31 09:36:10;;;;;;;11.93;6.28;;;;;;;21.21;81.23;101532.75;5069535;28;20086;-72
2022/07/31 09:38:39;;;;;;;10.65;6.88;;;;;;;21.22;81.07;101526.25;5069489;28;20525;-72
2022/07/31 09:41:13;;;;;;;11.55;6.15;;;;;;;21.29;82.66;101524.19;5069490;28;20063;-72
2022/07/31 09:43:39;;;;;;;11.65;6.55;;;;;;;21.30;81.27;101514.97;5067884;28;20020;-73
2022/07/31 09:46:06;;;;;;;10.88;6.50;;;;;;;21.48;80.59;101521.19;5069478;28;20117;-73
2022/07/31 09:48:33;;;;;;;10.02;5.65;;;;;;;21.65;80.30;101527.38;5069493;28;20032;-72
2022/07/31 09:51:04;;;;;;;14.50;8.13;;;;;;;21.74;79.88;101528.53;5069309;28;20400;-73
2022/07/31 09:53:49;;;;;;;12.77;6.00;;;;;;;21.79;80.29;101522.34;5069385;28;20027;-72
2022/07/31 09:56:14;;;;;;;9.77;5.97;;;;;;;21.76;78.66;101526.41;5069271;28;20032;-72
2022/07/31 09:58:41;;;;;;;11.02;5.55;;;;;;;21.76;79.26;101518.25;5068645;28;20054;-71
2022/07/31 10:01:11;;;;;;;10.80;5.40;;;;;;;21.97;78.90;101515.75;5069052;28;20367;-73
2022/07/31 10:03:39;;;;;;;9.63;6.35;;;;;;;22.18;78.14;101514.03;5069048;28;20078;-73
2022/07/31 10:06:07;;;;;;;14.50;7.18;;;;;;;22.28;77.53;101514.97;5063836;28;20507;-74
2022/07/31 10:08:35;;;;;;;10.60;5.97;;;;;;;22.34;77.02;101515.03;5064327;28;20028;-74
2022/07/31 10:11:02;;;;;;;12.60;6.68;;;;;;;22.35;77.17;101517.50;5064871;28;20017;-73
2022/07/31 10:13:29;;;;;;;12.80;6.88;;;;;;;22.29;76.74;101504.91;5064460;28;20913;-73
2022/07/31 10:15:58;;;;;;;11.57;6.43;;;;;;;22.42;75.64;101515.34;5064704;28;20467;-73
2022/07/31 10:18:27;;;;;;;11.05;6.20;;;;;;;22.50;75.82;101511.34;5065122;28;20029;-73
2022/07/31 10:20:54;;;;;;;12.02;6.30;;;;;;;22.62;75.68;101514.69;5064341;28;20484;-72
2022/07/31 10:23:22;;;;;;;12.10;6.30;;;;;;;22.58;74.61;101515.47;5064773;28;20028;-73
2022/07/31 10:25:53;;;;;;;13.35;6.72;;;;;;;22.63;75.60;101513.59;5064563;28;20013;-74
2022/07/31 10:28:19;;;;;;;11.07;5.70;;;;;;;22.60;75.15;101513.31;5064574;28;20036;-74
2022/07/31 10:30:45;;;;;;;10.65;6.90;;;;;;;22.56;75.10;101507.59;5065904;28;20135;-69
2022/07/31 10:33:11;;;;;;;8.57;4.85;;;;;;;22.53;75.09;101508.09;5068972;28;20618;-74
2022/07/31 10:36:01;;;;;;;11.15;6.28;;;;;;;22.58;75.40;101504.59;5069088;28;20116;-74
2022/07/31 10:38:44;;;;;;;13.18;6.32;;;;;;;22.64;75.24;101500.84;5069096;28;20052;-73
2022/07/31 10:41:24;;;;;;;6.78;4.90;;;;;;;22.74;74.12;101490.84;5068953;28;20021;-73
2022/07/31 10:43:59;;;;;;;10.25;5.40;;;;;;;22.92;74.17;101495.06;5068988;28;20033;-74
2022/07/31 10:46:29;;;;;;;12.48;6.28;;;;;;;23.14;72.92;101492.19;5068732;28;20028;-73
2022/07/31 10:48:55;;;;;;;9.18;5.57;;;;;;;23.30;72.63;101489.53;5067801;28;20044;-74
2022/07/31 10:51:22;;;;;;;7.50;4.60;;;;;;;23.43;72.65;101491.75;5068718;28;20442;-73
2022/07/31 10:53:55;;;;;;;6.97;4.50;;;;;;;23.43;71.89;101489.03;5068811;28;20028;-74
2022/07/31 10:56:21;;;;;;;6.88;5.45;;;;;;;23.45;71.63;101483.31;5068644;28;20028;-69
2022/07/31 10:58:51;;;;;;;8.00;5.10;;;;;;;23.43;71.49;101482.78;5068960;28;20028;-69
2022/07/31 11:01:17;;;;;;;9.85;5.07;;;;;;;23.37;70.01;101488.19;5068679;28;20021;-68
2022/07/31 11:03:45;;;;;;;8.80;5.50;;;;;;;23.30;70.72;101479.47;5068483;28;20094;-68
2022/07/31 11:06:15;;;;;;;6.82;5.15;;;;;;;23.26;71.72;101482.97;5068448;28;20108;-69
2022/07/31 11:08:46;;;;;;;6.30;4.32;;;;;;;23.11;71.60;101490.00;5068636;28;20024;-69
2022/07/31 11:11:13;;;;;;;8.18;4.53;;;;;;;22.99;72.44;101469.53;5067925;28;20024;-69
2022/07/31 11:13:56;;;;;;;6.30;4.13;;;;;;;22.87;72.78;101472.41;5068602;28;20032;-69